Terminal Aerodrome Forecast
Issued by NWS Cleveland, OH

Home | Current Version | Previous Version | Text Only | Print | Product List | Glossary On
Versions: 1 2 3 4 5 6 7 8 9 10 11 12 13 14 15 16 17 18 19 20 21 22
000
FTUS41 KCLE 210900 AAA
TAFMFD
TAF AMD
KMFD 210912Z 2109/2206 VRB03KT 6SM BR SCT035 BKN100
     FM211100 24004KT 5SM BR VCSH SCT025 OVC080
      TEMPO 2111/2113 3SM BR SCT015 OVC025
     FM211400 22008KT P6SM SCT035 BKN120
     FM212100 21008KT P6SM VCTS SCT040CB BKN100
     FM220400 22005KT 5SM BR FEW040 OVC150=

USA.gov is the U.S. government's official web portal to all federal, state and local government web resources and services.